sensor_id;sensor_type;location;lat;lon;timestamp;pressure;altitude;pressure_sealevel;temperature;humidity
43878;BME280;29815;48.184;11.268;2023-04-07T00:01:41;95569.03;;;3.48;100.00
43878;BME280;29815;48.184;11.268;2023-04-07T00:04:10;95572.13;;;3.45;100.00
43878;BME280;29815;48.184;11.268;2023-04-07T00:06:40;95569.34;;;3.39;100.00
43878;BME280;29815;48.184;11.268;2023-04-07T00:09:10;95566.59;;;3.46;100.00
43878;BME280;29815;48.184;11.268;2023-04-07T00:11:39;95566.38;;;3.48;100.00
43878;BME280;29815;48.184;11.268;2023-04-07T00:14:10;95570.50;;;3.44;100.00
43878;BME280;29815;48.184;11.268;2023-04-07T00:16:40;95573.03;;;3.38;100.00
43878;BME280;29815;48.184;11.268;2023-04-07T00:19:09;95574.13;;;3.31;100.00
43878;BME280;29815;48.184;11.268;2023-04-07T00:21:38;95567.19;;;3.30;100.00
43878;BME280;29815;48.184;11.268;2023-04-07T00:24:08;95572.50;;;3.30;100.00
43878;BME280;29815;48.184;11.268;2023-04-07T00:26:42;95571.13;;;3.27;100.00
43878;BME280;29815;48.184;11.268;2023-04-07T00:29:12;95569.75;;;3.25;100.00
43878;BME280;29815;48.184;11.268;2023-04-07T00:31:41;95572.03;;;3.21;100.00
43878;BME280;29815;48.184;11.268;2023-04-07T00:34:11;95576.16;;;3.17;100.00
43878;BME280;29815;48.184;11.268;2023-04-07T00:36:41;95576.47;;;3.27;100.00
43878;BME280;29815;48.184;11.268;2023-04-07T00:39:11;95566.03;;;3.26;100.00
43878;BME280;29815;48.184;11.268;2023-04-07T00:41:42;95567.78;;;3.32;100.00
43878;BME280;29815;48.184;11.268;2023-04-07T00:44:11;95566.91;;;3.38;100.00
43878;BME280;29815;48.184;11.268;2023-04-07T00:46:41;95571.41;;;3.37;100.00
43878;BME280;29815;48.184;11.268;2023-04-07T00:49:11;95563.78;;;3.41;100.00
43878;BME280;29815;48.184;11.268;2023-04-07T00:51:40;95562.91;;;3.47;100.00
43878;BME280;29815;48.184;11.268;2023-04-07T00:54:10;95559.69;;;3.57;100.00
43878;BME280;29815;48.184;11.268;2023-04-07T00:56:39;95553.97;;;3.71;100.00
43878;BME280;29815;48.184;11.268;2023-04-07T00:59:11;95560.69;;;3.74;100.00
43878;BME280;29815;48.184;11.268;2023-04-07T01:01:46;95551.06;;;3.73;100.00
43878;BME280;29815;48.184;11.268;2023-04-07T01:04:34;95558.34;;;3.66;100.00
43878;BME280;29815;48.184;11.268;2023-04-07T01:07:19;95557.16;;;3.62;100.00
43878;BME280;29815;48.184;11.268;2023-04-07T01:10:05;95553.59;;;3.68;100.00
43878;BME280;29815;48.184;11.268;2023-04-07T01:12:59;95553.28;;;3.76;100.00
43878;BME280;29815;48.184;11.268;2023-04-07T01:15:35;95558.16;;;3.79;100.00
43878;BME280;29815;48.184;11.268;2023-04-07T01:18:14;95551.91;;;3.85;100.00
43878;BME280;29815;48.184;11.268;2023-04-07T01:20:50;95548.44;;;3.85;100.00
43878;BME280;29815;48.184;11.268;2023-04-07T01:23:41;95535.38;;;3.95;100.00
43878;BME280;29815;48.184;11.268;2023-04-07T01:26:20;95542.09;;;3.97;100.00
43878;BME280;29815;48.184;11.268;2023-04-07T01:29:33;95540.25;;;3.98;100.00
43878;BME280;29815;48.184;11.268;2023-04-07T01:32:05;95541.66;;;4.00;100.00
43878;BME280;29815;48.184;11.268;2023-04-07T01:34:36;95539.78;;;4.01;100.00
43878;BME280;29815;48.184;11.268;2023-04-07T01:37:07;95539.44;;;3.97;100.00
43878;BME280;29815;48.184;11.268;2023-04-07T01:39:37;95536.91;;;4.02;100.00
43878;BME280;29815;48.184;11.268;2023-04-07T01:42:08;95538.88;;;4.07;100.00
43878;BME280;29815;48.184;11.268;2023-04-07T01:44:40;95534.47;;;4.13;100.00
43878;BME280;29815;48.184;11.268;2023-04-07T01:47:11;95535.31;;;4.25;100.00
43878;BME280;29815;48.184;11.268;2023-04-07T01:49:41;95531.50;;;4.32;100.00
43878;BME280;29815;48.184;11.268;2023-04-07T01:52:12;95528.16;;;4.37;100.00
43878;BME280;29815;48.184;11.268;2023-04-07T01:54:42;95530.66;;;4.43;100.00
43878;BME280;29815;48.184;11.268;2023-04-07T01:57:12;95529.97;;;4.48;100.00
43878;BME280;29815;48.184;11.268;2023-04-07T01:59:44;95530.91;;;4.54;100.00
43878;BME280;29815;48.184;11.268;2023-04-07T02:02:14;95528.81;;;4.67;100.00
43878;BME280;29815;48.184;11.268;2023-04-07T02:04:50;95521.63;;;4.80;100.00
43878;BME280;29815;48.184;11.268;2023-04-07T02:07:30;95528.69;;;4.86;100.00
43878;BME280;29815;48.184;11.268;2023-04-07T02:10:11;95526.69;;;4.93;100.00
43878;BME280;29815;48.184;11.268;2023-04-07T02:12:45;95523.22;;;4.92;100.00
43878;BME280;29815;48.184;11.268;2023-04-07T02:15:21;95524.28;;;4.91;100.00
43878;BME280;29815;48.184;11.268;2023-04-07T02:17:53;95523.22;;;4.92;100.00
43878;BME280;29815;48.184;11.268;2023-04-07T02:20:23;95524.84;;;4.82;100.00
43878;BME280;29815;48.184;11.268;2023-04-07T02:22:53;95532.97;;;4.75;100.00
43878;BME280;29815;48.184;11.268;2023-04-07T02:25:25;95528.34;;;4.70;100.00
43878;BME280;29815;48.184;11.268;2023-04-07T02:27:57;95527.91;;;4.62;100.00
43878;BME280;29815;48.184;11.268;2023-04-07T02:30:29;95529.28;;;4.53;100.00
43878;BME280;29815;48.184;11.268;2023-04-07T02:32:59;95527.44;;;4.53;100.00
43878;BME280;29815;48.184;11.268;2023-04-07T02:35:28;95526.63;;;4.53;100.00
43878;BME280;29815;48.184;11.268;2023-04-07T02:37:58;95530.44;;;4.45;100.00
43878;BME280;29815;48.184;11.268;2023-04-07T02:40:28;95527.44;;;4.41;100.00
43878;BME280;29815;48.184;11.268;2023-04-07T02:42:58;95520.72;;;4.27;100.00
43878;BME280;29815;48.184;11.268;2023-04-07T02:45:29;95512.25;;;4.30;100.00
43878;BME280;29815;48.184;11.268;2023-04-07T02:47:58;95512.16;;;4.25;100.00
43878;BME280;29815;48.184;11.268;2023-04-07T02:50:28;95510.97;;;4.21;100.00
43878;BME280;29815;48.184;11.268;2023-04-07T02:52:57;95501.69;;;4.12;100.00
43878;BME280;29815;48.184;11.268;2023-04-07T02:55:27;95499.53;;;4.09;100.00
43878;BME280;29815;48.184;11.268;2023-04-07T02:57:56;95506.44;;;3.98;100.00
43878;BME280;29815;48.184;11.268;2023-04-07T03:00:37;95503.06;;;3.91;100.00
43878;BME280;29815;48.184;11.268;2023-04-07T03:03:11;95509.44;;;3.90;100.00
43878;BME280;29815;48.184;11.268;2023-04-07T03:05:46;95500.19;;;3.81;100.00
43878;BME280;29815;48.184;11.268;2023-04-07T03:08:15;95497.38;;;3.76;100.00
43878;BME280;29815;48.184;11.268;2023-04-07T03:10:45;95494.81;;;3.69;100.00
43878;BME280;29815;48.184;11.268;2023-04-07T03:13:16;95500.59;;;3.66;100.00
43878;BME280;29815;48.184;11.268;2023-04-07T03:15:48;95494.69;;;3.64;100.00
43878;BME280;29815;48.184;11.268;2023-04-07T03:18:19;95497.34;;;3.64;100.00
43878;BME280;29815;48.184;11.268;2023-04-07T03:20:48;95490.63;;;3.62;100.00
43878;BME280;29815;48.184;11.268;2023-04-07T03:23:19;95489.81;;;3.61;100.00
43878;BME280;29815;48.184;11.268;2023-04-07T03:25:50;95493.50;;;3.60;100.00
43878;BME280;29815;48.184;11.268;2023-04-07T03:28:20;95490.84;;;3.60;100.00
43878;BME280;29815;48.184;11.268;2023-04-07T03:30:51;95490.84;;;3.60;100.00
43878;BME280;29815;48.184;11.268;2023-04-07T03:33:22;95496.97;;;3.61;100.00
43878;BME280;29815;48.184;11.268;2023-04-07T03:35:53;95494.31;;;3.61;100.00
43878;BME280;29815;48.184;11.268;2023-04-07T03:38:25;95485.75;;;3.59;100.00
43878;BME280;29815;48.184;11.268;2023-04-07T03:40:59;95484.94;;;3.58;100.00
43878;BME280;29815;48.184;11.268;2023-04-07T03:43:28;95483.31;;;3.57;100.00
43878;BME280;29815;48.184;11.268;2023-04-07T03:45:59;95479.03;;;3.56;100.00
43878;BME280;29815;48.184;11.268;2023-04-07T03:48:29;95479.03;;;3.56;100.00
43878;BME280;29815;48.184;11.268;2023-04-07T03:51:06;95476.38;;;3.56;100.00
43878;BME280;29815;48.184;11.268;2023-04-07T03:53:35;95469.47;;;3.55;100.00
43878;BME280;29815;48.184;11.268;2023-04-07T03:56:16;95468.66;;;3.55;100.00
43878;BME280;29815;48.184;11.268;2023-04-07T03:58:50;95473.16;;;3.54;100.00
43878;BME280;29815;48.184;11.268;2023-04-07T04:01:28;95471.53;;;3.53;100.00
43878;BME280;29815;48.184;11.268;2023-04-07T04:04:04;95478.47;;;3.54;100.00
43878;BME280;29815;48.184;11.268;2023-04-07T04:06:35;95465.19;;;3.54;100.00
43878;BME280;29815;48.184;11.268;2023-04-07T04:09:18;95468.66;;;3.55;100.00
43878;BME280;29815;48.184;11.268;2023-04-07T04:11:49;95467.84;;;3.54;100.00
43878;BME280;29815;48.184;11.268;2023-04-07T04:14:19;95467.84;;;3.54;100.00
43878;BME280;29815;48.184;11.268;2023-04-07T04:16:58;95468.66;;;3.55;100.00
43878;BME280;29815;48.184;11.268;2023-04-07T04:19:32;95469.69;;;3.54;100.00
43878;BME280;29815;48.184;11.268;2023-04-07T04:22:07;95470.50;;;3.54;100.00
43878;BME280;29815;48.184;11.268;2023-04-07T04:24:44;95471.88;;;3.57;100.00
43878;BME280;29815;48.184;11.268;2023-04-07T04:27:13;95463.31;;;3.55;100.00
43878;BME280;29815;48.184;11.268;2023-04-07T04:29:46;95471.19;;;3.61;100.00
43878;BME280;29815;48.184;11.268;2023-04-07T04:32:19;95464.91;;;3.56;100.00
43878;BME280;29815;48.184;11.268;2023-04-07T04:34:49;95470.94;;;3.51;100.00
43878;BME280;29815;48.184;11.268;2023-04-07T04:37:20;95467.47;;;3.51;100.00
43878;BME280;29815;48.184;11.268;2023-04-07T04:39:50;95460.16;;;3.46;100.00
43878;BME280;29815;48.184;11.268;2023-04-07T04:42:22;95467.56;;;3.44;100.00
43878;BME280;29815;48.184;11.268;2023-04-07T04:44:54;95459.22;;;3.40;100.00
43878;BME280;29815;48.184;11.268;2023-04-07T04:47:26;95465.00;;;3.37;100.00
43878;BME280;29815;48.184;11.268;2023-04-07T04:49:57;95457.25;;;3.36;100.00
43878;BME280;29815;48.184;11.268;2023-04-07T04:52:27;95453.53;;;3.37;100.00
43878;BME280;29815;48.184;11.268;2023-04-07T04:54:57;95454.34;;;3.37;100.00
43878;BME280;29815;48.184;11.268;2023-04-07T04:57:28;95451.47;;;3.39;100.00
43878;BME280;29815;48.184;11.268;2023-04-07T04:59:58;95454.13;;;3.39;100.00
43878;BME280;29815;48.184;11.268;2023-04-07T05:02:30;95463.97;;;3.38;100.00
43878;BME280;29815;48.184;11.268;2023-04-07T05:05:02;95459.91;;;3.36;100.00
43878;BME280;29815;48.184;11.268;2023-04-07T05:07:32;95460.13;;;3.34;100.00
43878;BME280;29815;48.184;11.268;2023-04-07T05:10:02;95461.97;;;3.34;100.00
43878;BME280;29815;48.184;11.268;2023-04-07T05:12:35;95456.06;;;3.32;100.00
43878;BME280;29815;48.184;11.268;2023-04-07T05:15:07;95464.03;;;3.32;100.00
43878;BME280;29815;48.184;11.268;2023-04-07T05:17:38;95456.28;;;3.30;100.00
43878;BME280;29815;48.184;11.268;2023-04-07T05:20:12;95458.13;;;3.30;100.00
43878;BME280;29815;48.184;11.268;2023-04-07T05:22:42;95458.50;;;3.33;100.00
43878;BME280;29815;48.184;11.268;2023-04-07T05:25:14;95454.00;;;3.34;100.00
43878;BME280;29815;48.184;11.268;2023-04-07T05:27:45;95446.69;;;3.29;100.00
43878;BME280;29815;48.184;11.268;2023-04-07T05:30:16;95445.88;;;3.29;100.00
43878;BME280;29815;48.184;11.268;2023-04-07T05:32:47;95444.28;;;3.28;100.00
43878;BME280;29815;48.184;11.268;2023-04-07T05:35:25;95447.88;;;3.33;100.00
43878;BME280;29815;48.184;11.268;2023-04-07T05:37:57;95448.66;;;3.34;100.00
43878;BME280;29815;48.184;11.268;2023-04-07T05:40:27;95439.66;;;3.35;100.00
43878;BME280;29815;48.184;11.268;2023-04-07T05:43:00;95442.69;;;3.38;100.00
43878;BME280;29815;48.184;11.268;2023-04-07T05:45:31;95437.13;;;3.40;100.00
43878;BME280;29815;48.184;11.268;2023-04-07T05:48:02;95442.81;;;3.44;100.00
43878;BME280;29815;48.184;11.268;2023-04-07T05:50:40;95438.44;;;3.49;100.00
43878;BME280;29815;48.184;11.268;2023-04-07T05:53:13;95440.06;;;3.50;100.00
43878;BME280;29815;48.184;11.268;2023-04-07T05:55:44;95435.31;;;3.52;100.00
43878;BME280;29815;48.184;11.268;2023-04-07T05:58:22;95439.13;;;3.56;100.00
43878;BME280;29815;48.184;11.268;2023-04-07T06:00:54;95437.28;;;3.57;100.00
43878;BME280;29815;48.184;11.268;2023-04-07T06:03:25;95439.47;;;3.60;100.00
43878;BME280;29815;48.184;11.268;2023-04-07T06:06:01;95430.47;;;3.61;100.00
43878;BME280;29815;48.184;11.268;2023-04-07T06:08:30;95416.91;;;3.62;100.00
43878;BME280;29815;48.184;11.268;2023-04-07T06:11:00;95409.53;;;3.64;100.00
43878;BME280;29815;48.184;11.268;2023-04-07T06:13:30;95421.91;;;3.70;100.00
43878;BME280;29815;48.184;11.268;2023-04-07T06:15:59;95420.66;;;3.73;100.00
43878;BME280;29815;48.184;11.268;2023-04-07T06:18:30;95422.50;;;3.72;100.00
43878;BME280;29815;48.184;11.268;2023-04-07T06:20:59;95422.72;;;3.71;100.00
43878;BME280;29815;48.184;11.268;2023-04-07T06:23:43;95424.13;;;3.73;100.00
43878;BME280;29815;48.184;11.268;2023-04-07T06:26:13;95417.53;;;3.76;100.00
43878;BME280;29815;48.184;11.268;2023-04-07T06:28:42;95409.31;;;3.78;100.00
43878;BME280;29815;48.184;11.268;2023-04-07T06:31:12;95415.00;;;3.81;100.00
43878;BME280;29815;48.184;11.268;2023-04-07T06:33:41;95420.63;;;3.85;100.00
43878;BME280;29815;48.184;11.268;2023-04-07T06:36:11;95416.94;;;3.86;100.00
43878;BME280;29815;48.184;11.268;2023-04-07T06:38:42;95411.38;;;3.87;100.00
43878;BME280;29815;48.184;11.268;2023-04-07T06:41:11;95411.72;;;3.91;100.00
43878;BME280;29815;48.184;11.268;2023-04-07T06:43:46;95411.03;;;3.95;100.00
43878;BME280;29815;48.184;11.268;2023-04-07T06:46:18;95413.84;;;4.00;100.00
43878;BME280;29815;48.184;11.268;2023-04-07T06:48:48;95408.63;;;4.05;100.00
43878;BME280;29815;48.184;11.268;2023-04-07T06:51:17;95408.47;;;4.12;100.00
43878;BME280;29815;48.184;11.268;2023-04-07T06:53:48;95415.78;;;4.17;100.00
43878;BME280;29815;48.184;11.268;2023-04-07T06:56:18;95408.72;;;4.22;100.00
43878;BME280;29815;48.184;11.268;2023-04-07T06:58:48;95407.44;;;4.25;100.00
43878;BME280;29815;48.184;11.268;2023-04-07T07:01:18;95412.06;;;4.29;100.00
43878;BME280;29815;48.184;11.268;2023-04-07T07:03:47;95408.94;;;4.32;100.00
43878;BME280;29815;48.184;11.268;2023-04-07T07:06:17;95410.91;;;4.37;100.00
43878;BME280;29815;48.184;11.268;2023-04-07T07:08:48;95406.72;;;4.41;100.00
43878;BME280;29815;48.184;11.268;2023-04-07T07:11:17;95404.63;;;4.43;100.00
43878;BME280;29815;48.184;11.268;2023-04-07T07:13:47;95401.25;;;4.48;100.00
43878;BME280;29815;48.184;11.268;2023-04-07T07:16:17;95404.03;;;4.53;100.00
43878;BME280;29815;48.184;11.268;2023-04-07T07:18:47;95412.94;;;4.58;100.00
43878;BME280;29815;48.184;11.268;2023-04-07T07:21:17;95406.69;;;4.64;100.00
43878;BME280;29815;48.184;11.268;2023-04-07T07:23:48;95412.91;;;4.70;100.00
43878;BME280;29815;48.184;11.268;2023-04-07T07:26:18;95416.47;;;4.75;100.00
43878;BME280;29815;48.184;11.268;2023-04-07T07:28:48;95410.44;;;4.80;100.00
43878;BME280;29815;48.184;11.268;2023-04-07T07:31:17;95413.78;;;4.87;100.00
43878;BME280;29815;48.184;11.268;2023-04-07T07:33:47;95411.53;;;4.96;100.00
43878;BME280;29815;48.184;11.268;2023-04-07T07:36:18;95406.41;;;5.06;100.00
43878;BME280;29815;48.184;11.268;2023-04-07T07:38:50;95408.47;;;5.16;100.00
43878;BME280;29815;48.184;11.268;2023-04-07T07:41:19;95416.06;;;5.24;100.00
43878;BME280;29815;48.184;11.268;2023-04-07T07:43:49;95406.84;;;5.31;100.00
43878;BME280;29815;48.184;11.268;2023-04-07T07:46:18;95416.09;;;5.40;100.00
43878;BME280;29815;48.184;11.268;2023-04-07T07:48:48;95414.63;;;5.50;100.00
43878;BME280;29815;48.184;11.268;2023-04-07T07:51:17;95409.47;;;5.60;100.00
43878;BME280;29815;48.184;11.268;2023-04-07T07:53:47;95418.72;;;5.69;100.00
43878;BME280;29815;48.184;11.268;2023-04-07T07:56:18;95406.81;;;5.76;100.00
43878;BME280;29815;48.184;11.268;2023-04-07T07:58:48;95398.50;;;5.90;100.00
43878;BME280;29815;48.184;11.268;2023-04-07T08:01:18;95401.16;;;6.06;100.00
43878;BME280;29815;48.184;11.268;2023-04-07T08:03:47;95396.53;;;6.19;100.00
43878;BME280;29815;48.184;11.268;2023-04-07T08:06:17;95405.78;;;6.33;100.00
43878;BME280;29815;48.184;11.268;2023-04-07T08:08:47;95394.75;;;6.46;100.00
43878;BME280;29815;48.184;11.268;2023-04-07T08:11:18;95393.00;;;6.57;100.00
43878;BME280;29815;48.184;11.268;2023-04-07T08:13:48;95393.44;;;6.70;100.00
43878;BME280;29815;48.184;11.268;2023-04-07T08:16:17;95397.06;;;6.81;100.00
43878;BME280;29815;48.184;11.268;2023-04-07T08:18:47;95385.97;;;6.94;100.00
43878;BME280;29815;48.184;11.268;2023-04-07T08:21:17;95393.31;;;7.04;100.00
43878;BME280;29815;48.184;11.268;2023-04-07T08:23:47;95390.16;;;7.12;100.00
43878;BME280;29815;48.184;11.268;2023-04-07T08:26:18;95390.53;;;7.21;100.00
43878;BME280;29815;48.184;11.268;2023-04-07T08:28:48;95396.25;;;7.29;100.00
43878;BME280;29815;48.184;11.268;2023-04-07T08:31:19;95400.13;;;7.43;100.00
43878;BME280;29815;48.184;11.268;2023-04-07T08:33:48;95389.25;;;7.55;100.00
43878;BME280;29815;48.184;11.268;2023-04-07T08:36:21;95393.13;;;7.69;100.00
43878;BME280;29815;48.184;11.268;2023-04-07T08:38:50;95394.56;;;7.82;100.00
43878;BME280;29815;48.184;11.268;2023-04-07T08:41:28;95390.09;;;7.93;100.00
43878;BME280;29815;48.184;11.268;2023-04-07T08:44:00;95387.72;;;8.01;100.00
43878;BME280;29815;48.184;11.268;2023-04-07T08:46:31;95382.75;;;8.15;100.00
43878;BME280;29815;48.184;11.268;2023-04-07T08:49:01;95382.78;;;8.25;100.00
43878;BME280;29815;48.184;11.268;2023-04-07T08:51:32;95385.03;;;8.33;100.00
43878;BME280;29815;48.184;11.268;2023-04-07T08:54:08;95387.47;;;8.40;100.00
43878;BME280;29815;48.184;11.268;2023-04-07T08:56:41;95379.22;;;8.46;100.00
43878;BME280;29815;48.184;11.268;2023-04-07T08:59:14;95378.16;;;8.53;100.00
43878;BME280;29815;48.184;11.268;2023-04-07T09:01:45;95382.22;;;8.60;100.00
43878;BME280;29815;48.184;11.268;2023-04-07T09:04:16;95383.84;;;8.66;100.00
43878;BME280;29815;48.184;11.268;2023-04-07T09:06:45;95381.47;;;8.70;100.00
43878;BME280;29815;48.184;11.268;2023-04-07T09:09:15;95377.19;;;8.74;100.00
43878;BME280;29815;48.184;11.268;2023-04-07T09:11:47;95381.75;;;8.78;100.00
43878;BME280;29815;48.184;11.268;2023-04-07T09:14:19;95368.13;;;8.90;100.00
43878;BME280;29815;48.184;11.268;2023-04-07T09:16:49;95368.94;;;8.96;100.00
43878;BME280;29815;48.184;11.268;2023-04-07T09:19:18;95369.78;;;9.01;100.00
43878;BME280;29815;48.184;11.268;2023-04-07T09:21:49;95375.69;;;9.08;100.00
43878;BME280;29815;48.184;11.268;2023-04-07T09:24:21;95373.56;;;9.15;100.00
43878;BME280;29815;48.184;11.268;2023-04-07T09:27:12;95371.16;;;9.24;100.00
43878;BME280;29815;48.184;11.268;2023-04-07T09:29:45;95369.56;;;9.33;100.00
43878;BME280;29815;48.184;11.268;2023-04-07T09:32:34;95373.91;;;9.49;90.28
43878;BME280;29815;48.184;11.268;2023-04-07T09:35:07;95364.22;;;9.43;87.34
43878;BME280;29815;48.184;11.268;2023-04-07T09:37:37;95369.56;;;9.43;93.60
43878;BME280;29815;48.184;11.268;2023-04-07T09:40:08;95368.19;;;9.31;86.24
43878;BME280;29815;48.184;11.268;2023-04-07T09:42:45;95371.44;;;9.38;94.24
43878;BME280;29815;48.184;11.268;2023-04-07T09:45:23;95364.78;;;9.56;96.88
43878;BME280;29815;48.184;11.268;2023-04-07T09:48:06;95370.16;;;9.81;99.06
43878;BME280;29815;48.184;11.268;2023-04-07T09:50:40;95356.41;;;9.98;89.24
43878;BME280;29815;48.184;11.268;2023-04-07T09:53:12;95357.72;;;10.15;81.74
43878;BME280;29815;48.184;11.268;2023-04-07T09:55:42;95354.78;;;10.17;80.03
43878;BME280;29815;48.184;11.268;2023-04-07T09:58:13;95355.88;;;10.11;77.54
43878;BME280;29815;48.184;11.268;2023-04-07T10:00:44;95366.38;;;10.07;79.22
43878;BME280;29815;48.184;11.268;2023-04-07T10:03:15;95358.31;;;10.02;82.71
43878;BME280;29815;48.184;11.268;2023-04-07T10:05:45;95349.38;;;10.17;90.50
43878;BME280;29815;48.184;11.268;2023-04-07T10:08:15;95361.78;;;10.28;84.33
43878;BME280;29815;48.184;11.268;2023-04-07T10:10:46;95358.81;;;10.35;81.46
43878;BME280;29815;48.184;11.268;2023-04-07T10:13:19;95354.19;;;10.45;81.71
43878;BME280;29815;48.184;11.268;2023-04-07T10:15:49;95349.06;;;10.54;83.29
43878;BME280;29815;48.184;11.268;2023-04-07T10:18:20;95349.84;;;10.65;83.66
43878;BME280;29815;48.184;11.268;2023-04-07T10:20:51;95350.31;;;10.77;80.07
43878;BME280;29815;48.184;11.268;2023-04-07T10:23:31;95345.16;;;10.91;79.23
43878;BME280;29815;48.184;11.268;2023-04-07T10:26:06;95341.59;;;11.00;80.36
43878;BME280;29815;48.184;11.268;2023-04-07T10:28:40;95340.50;;;11.06;77.31
43878;BME280;29815;48.184;11.268;2023-04-07T10:31:12;95340.16;;;11.18;76.19
43878;BME280;29815;48.184;11.268;2023-04-07T10:33:49;95340.91;;;11.29;72.66
43878;BME280;29815;48.184;11.268;2023-04-07T10:36:20;95343.03;;;11.32;72.37
43878;BME280;29815;48.184;11.268;2023-04-07T10:39:19;95340.03;;;11.38;75.38
43878;BME280;29815;48.184;11.268;2023-04-07T10:41:49;95336.97;;;11.50;74.06
43878;BME280;29815;48.184;11.268;2023-04-07T10:47:24;95340.69;;;11.59;73.06
43878;BME280;29815;48.184;11.268;2023-04-07T10:50:18;95342.56;;;11.59;73.56
43878;BME280;29815;48.184;11.268;2023-04-07T10:53:03;95328.75;;;11.70;71.97
43878;BME280;29815;48.184;11.268;2023-04-07T10:55:36;95340.09;;;11.67;74.03
43878;BME280;29815;48.184;11.268;2023-04-07T10:58:21;95347.59;;;11.75;74.60
43878;BME280;29815;48.184;11.268;2023-04-07T11:01:19;95342.31;;;11.94;76.88
43878;BME280;29815;48.184;11.268;2023-04-07T11:03:58;95345.63;;;12.15;76.56
43878;BME280;29815;48.184;11.268;2023-04-07T11:06:29;95339.69;;;12.18;69.16
43878;BME280;29815;48.184;11.268;2023-04-07T11:08:58;95343.22;;;12.13;70.13
43878;BME280;29815;48.184;11.268;2023-04-07T11:11:37;95329.66;;;12.24;68.84
43878;BME280;29815;48.184;11.268;2023-04-07T11:14:10;95332.47;;;12.37;69.78
43878;BME280;29815;48.184;11.268;2023-04-07T11:16:41;95330.19;;;12.49;69.50
43878;BME280;29815;48.184;11.268;2023-04-07T11:19:14;95321.94;;;12.60;69.66
43878;BME280;29815;48.184;11.268;2023-04-07T11:21:43;95334.06;;;12.62;67.59
43878;BME280;29815;48.184;11.268;2023-04-07T11:24:31;95326.63;;;12.54;67.17
43878;BME280;29815;48.184;11.268;2023-04-07T11:27:01;95331.22;;;12.53;67.73
43878;BME280;29815;48.184;11.268;2023-04-07T11:29:31;95324.53;;;12.46;65.92
43878;BME280;29815;48.184;11.268;2023-04-07T11:32:01;95327.47;;;12.49;65.92
43878;BME280;29815;48.184;11.268;2023-04-07T11:34:35;95322.13;;;12.44;66.15
43878;BME280;29815;48.184;11.268;2023-04-07T11:37:18;95328.63;;;12.43;65.59
43878;BME280;29815;48.184;11.268;2023-04-07T11:39:51;95321.84;;;12.46;66.68
43878;BME280;29815;48.184;11.268;2023-04-07T11:42:31;95318.97;;;12.61;65.47
43878;BME280;29815;48.184;11.268;2023-04-07T11:45:02;95322.25;;;12.58;63.83
43878;BME280;29815;48.184;11.268;2023-04-07T11:47:34;95324.59;;;12.65;63.71
43878;BME280;29815;48.184;11.268;2023-04-07T11:50:07;95320.47;;;12.72;64.03
43878;BME280;29815;48.184;11.268;2023-04-07T11:52:41;95313.25;;;12.86;63.07
43878;BME280;29815;48.184;11.268;2023-04-07T11:55:18;95319.59;;;12.77;63.87
43878;BME280;29815;48.184;11.268;2023-04-07T11:57:49;95318.72;;;12.81;64.42
43878;BME280;29815;48.184;11.268;2023-04-07T12:00:19;95313.84;;;12.83;64.61
43878;BME280;29815;48.184;11.268;2023-04-07T12:02:49;95318.75;;;13.00;64.48
43878;BME280;29815;48.184;11.268;2023-04-07T12:05:21;95317.78;;;12.91;63.04
43878;BME280;29815;48.184;11.268;2023-04-07T12:07:52;95325.94;;;12.86;63.14
43878;BME280;29815;48.184;11.268;2023-04-07T12:10:24;95319.88;;;12.75;62.37
43878;BME280;29815;48.184;11.268;2023-04-07T12:12:54;95323.63;;;12.56;61.98
43878;BME280;29815;48.184;11.268;2023-04-07T12:15:26;95312.31;;;12.30;63.11
43878;BME280;29815;48.184;11.268;2023-04-07T12:17:56;95319.09;;;12.27;63.85
43878;BME280;29815;48.184;11.268;2023-04-07T12:20:27;95313.84;;;12.36;65.32
43878;BME280;29815;48.184;11.268;2023-04-07T12:22:56;95325.41;;;12.41;63.61
43878;BME280;29815;48.184;11.268;2023-04-07T12:25:27;95324.84;;;12.44;64.30
43878;BME280;29815;48.184;11.268;2023-04-07T12:27:56;95323.56;;;12.37;63.17
43878;BME280;29815;48.184;11.268;2023-04-07T12:30:26;95332.63;;;12.22;63.49
43878;BME280;29815;48.184;11.268;2023-04-07T12:32:55;95333.81;;;12.11;64.21
43878;BME280;29815;48.184;11.268;2023-04-07T12:35:26;95329.59;;;12.00;64.37
43878;BME280;29815;48.184;11.268;2023-04-07T12:37:56;95327.22;;;11.93;65.89
43878;BME280;29815;48.184;11.268;2023-04-07T12:40:25;95326.94;;;11.95;65.89
43878;BME280;29815;48.184;11.268;2023-04-07T12:42:56;95330.16;;;11.97;66.70
43878;BME280;29815;48.184;11.268;2023-04-07T12:45:26;95331.75;;;12.03;66.42
43878;BME280;29815;48.184;11.268;2023-04-07T12:47:57;95323.84;;;12.06;65.77
43878;BME280;29815;48.184;11.268;2023-04-07T12:50:29;95332.31;;;12.00;66.78
43878;BME280;29815;48.184;11.268;2023-04-07T12:52:58;95322.84;;;12.02;66.25
43878;BME280;29815;48.184;11.268;2023-04-07T12:55:31;95323.34;;;12.04;65.75
43878;BME280;29815;48.184;11.268;2023-04-07T12:58:02;95315.19;;;12.09;66.27
43878;BME280;29815;48.184;11.268;2023-04-07T13:00:32;95325.16;;;12.14;65.76
43878;BME280;29815;48.184;11.268;2023-04-07T13:03:01;95323.25;;;12.14;65.90
43878;BME280;29815;48.184;11.268;2023-04-07T13:05:33;95323.72;;;12.22;66.60
43878;BME280;29815;48.184;11.268;2023-04-07T13:08:02;95317.47;;;12.26;66.49
43878;BME280;29815;48.184;11.268;2023-04-07T13:10:32;95319.09;;;12.27;66.91
43878;BME280;29815;48.184;11.268;2023-04-07T13:13:02;95324.13;;;12.34;67.10
43878;BME280;29815;48.184;11.268;2023-04-07T13:15:31;95319.53;;;12.34;66.06
43878;BME280;29815;48.184;11.268;2023-04-07T13:18:01;95317.81;;;12.43;66.87
43878;BME280;29815;48.184;11.268;2023-04-07T13:20:32;95319.94;;;12.46;65.52